Severomorsk, Russia
Current Conditions -  °F | °C
As of 12:30 PM on Monday 20 Oct 2014 (Local Time) from ULMM Reporting Station
Broken Clouds Broken Clouds  
Wind Chill: 21°   Ceiling: 400
Heat Index: 21°   Visibility: 5mi
Dew Point: 19°   Wind: 0mph
Humidity: 93%   Direction: NA
Pressure: 29.8"   Gusts: NA
Location:  69.07°N, 33.42°E
Report Text: ULMM 200930Z 00000MPS 8000 BKN004 M06/M07 Q1009 NOSIG RMKQBB120 OBST OBSC QFE749 31290145
Loading
Personal Weather Stations






























Interactive Weather Map
Tropical Storm Tracking
New forecast layout! Learn more

10-Day Weather Forecast

Advertisements
Track Severe Weather on mobile